Time;durP1;ratioP1;P1;durP2;ratioP2;P2;SDS_P1;SDS_P2;PMS_P1;PMS_P2;Temp;Humidity;BMP_temperature;BMP_pressure;BME280_temperature;BME280_humidity;BME280_pressure;Samples;Min_cycle;Max_cycle;Signal;HPM_P1;HPM_P2
2021/11/18 00:00:28;;;;;;;5.43;1.90;;;;;;;5.25;100.00;102072.94;6323163;28;20415;-68
2021/11/18 00:03:30;;;;;;;9.48;2.05;;;;;;;5.23;100.00;102074.72;6323435;28;20059;-70
2021/11/18 00:06:33;;;;;;;17.40;2.80;;;;;;;5.27;100.00;102071.22;6322888;28;20118;-68
2021/11/18 00:09:34;;;;;;;6.93;2.28;;;;;;;5.23;100.00;102073.88;6323272;28;20052;-70
2021/11/18 00:12:36;;;;;;;16.92;2.72;;;;;;;5.20;100.00;102076.47;6322814;28;20068;-70
2021/11/18 00:15:38;;;;;;;5.07;1.75;;;;;;;5.20;100.00;102074.75;6322848;28;20055;-71
2021/11/18 00:18:41;;;;;;;6.15;1.80;;;;;;;5.21;100.00;102078.22;6322447;28;20059;-70
2021/11/18 00:21:45;;;;;;;6.50;1.55;;;;;;;5.22;100.00;102069.50;6322568;28;20138;-70
2021/11/18 00:24:47;;;;;;;8.38;2.72;;;;;;;5.20;100.00;102079.94;6322874;28;20059;-68
2021/11/18 00:27:49;;;;;;;3.13;1.75;;;;;;;5.18;100.00;102076.50;6322532;28;20044;-68
2021/11/18 00:30:52;;;;;;;4.78;1.73;;;;;;;5.16;100.00;102086.06;6322411;28;20055;-68
2021/11/18 00:33:53;;;;;;;3.58;1.52;;;;;;;5.13;100.00;102093.91;6321810;28;20406;-70
2021/11/18 00:36:56;;;;;;;2.25;1.08;;;;;;;5.13;100.00;102082.63;6322532;28;20426;-70
2021/11/18 00:39:58;;;;;;;6.55;1.85;;;;;;;5.12;100.00;102086.97;6321843;28;20055;-68
2021/11/18 00:43:00;;;;;;;3.38;1.70;;;;;;;5.09;100.00;102077.47;6322484;28;20050;-68
2021/11/18 00:46:01;;;;;;;3.03;1.52;;;;;;;5.06;100.00;102085.28;6322132;28;20432;-70
2021/11/18 00:49:04;;;;;;;5.65;1.35;;;;;;;5.06;100.00;102095.72;6322311;28;20396;-71
2021/11/18 00:52:07;;;;;;;2.67;1.55;;;;;;;5.10;100.00;102099.16;6321757;28;20487;-70
2021/11/18 00:55:10;;;;;;;2.97;1.75;;;;;;;5.08;100.00;102100.91;6320365;28;20087;-68
2021/11/18 00:58:12;;;;;;;2.72;1.20;;;;;;;5.07;100.00;102113.06;6321822;28;20051;-70
2021/11/18 01:01:15;;;;;;;4.13;2.33;;;;;;;5.07;100.00;102123.50;6321506;28;20574;-71
2021/11/18 01:04:19;;;;;;;7.00;2.63;;;;;;;5.07;100.00;102122.63;6322155;28;20059;-71
2021/11/18 01:07:22;;;;;;;8.00;1.92;;;;;;;5.06;100.00;102120.91;6321008;28;20055;-71
2021/11/18 01:10:25;;;;;;;8.10;1.90;;;;;;;5.09;100.00;102131.31;6321540;28;20073;-70
2021/11/18 01:13:28;;;;;;;3.17;1.40;;;;;;;5.08;100.00;102130.41;6321662;28;20446;-70
2021/11/18 01:16:32;;;;;;;5.80;1.85;;;;;;;5.09;100.00;102137.38;6321787;28;20050;-70
2021/11/18 01:19:34;;;;;;;6.57;2.45;;;;;;;5.14;100.00;102132.13;6321545;28;20052;-70
2021/11/18 01:22:37;;;;;;;9.40;2.03;;;;;;;5.12;100.00;102136.47;6321721;28;20052;-70
2021/11/18 01:25:38;;;;;;;8.75;2.72;;;;;;;5.12;100.00;102135.63;6321361;28;20444;-70
2021/11/18 01:28:41;;;;;;;3.70;1.65;;;;;;;5.12;100.00;102146.91;6321576;28;20491;-70
2021/11/18 01:31:43;;;;;;;15.98;1.88;;;;;;;5.12;100.00;102144.28;6321548;28;20495;-70
2021/11/18 01:34:44;;;;;;;3.20;1.73;;;;;;;5.12;100.00;102138.22;6321530;28;20495;-70
2021/11/18 01:37:47;;;;;;;3.05;1.35;;;;;;;5.11;100.00;102134.75;6321050;28;20044;-70
2021/11/18 01:40:51;;;;;;;1.65;1.10;;;;;;;5.13;100.00;102140.81;6277155;22;20493;-71
2021/11/18 01:43:55;;;;;;;2.90;1.73;;;;;;;5.14;100.00;102144.31;6257754;28;20511;-71
2021/11/18 01:46:57;;;;;;;3.30;1.50;;;;;;;5.17;100.00;102136.44;6270185;28;20400;-73
2021/11/18 01:49:59;;;;;;;4.75;1.58;;;;;;;5.14;100.00;102137.34;6261796;28;20523;-71
2021/11/18 01:53:05;;;;;;;4.10;1.65;;;;;;;5.18;100.00;102146.88;6271030;28;20392;-73
2021/11/18 01:56:08;;;;;;;3.53;1.40;;;;;;;5.21;100.00;102148.56;6271205;28;20195;-74
2021/11/18 01:59:13;;;;;;;4.22;1.02;;;;;;;5.21;100.00;102153.78;6271143;28;20139;-73
2021/11/18 02:02:16;;;;;;;6.00;1.50;;;;;;;5.25;100.00;102145.06;6271171;28;20049;-71
2021/11/18 02:05:21;;;;;;;9.27;1.98;;;;;;;5.24;100.00;102152.03;6271140;28;20266;-73
2021/11/18 02:08:24;;;;;;;7.32;1.90;;;;;;;5.29;100.00;102152.84;6287032;28;20488;-73
2021/11/18 02:11:30;;;;;;;4.80;2.25;;;;;;;5.32;100.00;102157.19;6287004;28;20458;-72
2021/11/18 02:14:32;;;;;;;4.68;1.33;;;;;;;5.33;100.00;102144.13;6270830;28;20049;-71
2021/11/18 02:17:34;;;;;;;2.75;1.20;;;;;;;5.37;100.00;102151.91;6270999;28;20563;-73
2021/11/18 02:20:36;;;;;;;6.32;1.45;;;;;;;5.37;100.00;102159.75;6274283;28;20056;-72
2021/11/18 02:23:42;;;;;;;3.65;1.73;;;;;;;5.38;100.00;102151.03;6275632;28;20053;-74
2021/11/18 02:26:43;;;;;;;2.85;1.08;;;;;;;5.41;100.00;102156.22;6275587;28;20048;-71
2021/11/18 02:29:47;;;;;;;4.20;1.55;;;;;;;5.47;100.00;102156.16;6275286;28;20053;-73
2021/11/18 02:32:49;;;;;;;4.95;1.65;;;;;;;5.46;100.00;102157.91;6274999;28;20048;-71
2021/11/18 02:35:52;;;;;;;6.03;1.23;;;;;;;5.49;100.00;102163.06;6275586;28;20056;-71
2021/11/18 02:38:53;;;;;;;5.22;1.88;;;;;;;5.52;100.00;102150.00;6290846;28;20044;-71
2021/11/18 02:41:55;;;;;;;6.07;1.73;;;;;;;5.58;100.00;102160.38;6299865;28;20123;-72
2021/11/18 02:44:57;;;;;;;5.43;1.48;;;;;;;5.59;100.00;102154.31;6300203;28;20488;-71
2021/11/18 02:47:59;;;;;;;4.13;2.47;;;;;;;5.56;100.00;102150.84;6300270;28;20419;-72
2021/11/18 02:51:09;;;;;;;3.70;2.25;;;;;;;5.62;100.00;102156.00;6299509;28;20060;-71
2021/11/18 02:54:10;;;;;;;7.57;1.50;;;;;;;5.59;100.00;102145.63;6300016;28;20052;-71
2021/11/18 02:57:12;;;;;;;2.60;1.52;;;;;;;5.60;100.00;102139.53;6299501;28;20454;-71
2021/11/18 03:00:16;;;;;;;3.22;1.60;;;;;;;5.58;100.00;102144.72;6299584;28;20075;-71
2021/11/18 03:03:18;;;;;;;2.45;1.38;;;;;;;5.56;100.00;102132.59;6299596;28;20055;-71
2021/11/18 03:06:20;;;;;;;5.47;1.63;;;;;;;5.56;100.00;102133.47;6299488;28;20055;-73
2021/11/18 03:09:22;;;;;;;7.47;2.17;;;;;;;5.57;100.00;102131.72;6283531;28;20048;-71
2021/11/18 03:12:23;;;;;;;5.93;1.88;;;;;;;5.56;100.00;102132.59;6274129;28;20052;-73
2021/11/18 03:15:26;;;;;;;2.72;1.65;;;;;;;5.56;100.00;102137.81;6274308;28;20053;-71
2021/11/18 03:18:28;;;;;;;7.53;1.70;;;;;;;5.53;100.00;102145.66;6274245;28;20053;-72
2021/11/18 03:21:31;;;;;;;4.68;2.25;;;;;;;5.53;100.00;102159.56;6274272;28;20052;-73
2021/11/18 03:24:33;;;;;;;3.35;1.42;;;;;;;5.49;100.00;102163.06;6274053;28;20424;-73
2021/11/18 03:27:34;;;;;;;5.75;2.00;;;;;;;5.50;100.00;102154.41;6274366;28;20514;-74
2021/11/18 03:30:38;;;;;;;8.25;1.85;;;;;;;5.48;100.00;102157.88;6273724;28;20049;-73
2021/11/18 03:33:43;;;;;;;3.80;2.05;;;;;;;5.47;100.00;102162.22;6274038;28;20415;-73
2021/11/18 03:36:45;;;;;;;10.93;2.28;;;;;;;5.45;100.00;102163.13;6273875;28;20041;-73
2021/11/18 03:39:47;;;;;;;3.60;1.50;;;;;;;5.45;100.00;102155.28;6273597;28;20539;-73
2021/11/18 03:42:48;;;;;;;5.40;2.08;;;;;;;5.46;100.00;102155.31;6273961;28;20488;-71
2021/11/18 03:45:50;;;;;;;4.10;1.60;;;;;;;5.44;100.00;102157.03;6273594;28;20045;-71
2021/11/18 03:48:52;;;;;;;4.30;1.92;;;;;;;5.47;100.00;102156.16;6273851;28;20397;-73
2021/11/18 03:51:59;;;;;;;1.83;1.20;;;;;;;5.44;100.00;102146.63;6273301;28;20053;-73
2021/11/18 03:55:00;;;;;;;5.82;1.73;;;;;;;5.41;100.00;102148.41;6273697;28;20531;-73
2021/11/18 03:58:02;;;;;;;2.38;1.35;;;;;;;5.40;100.00;102150.13;6273257;28;20045;-73
2021/11/18 04:01:04;;;;;;;5.88;1.95;;;;;;;5.40;100.00;102152.72;6273469;28;20060;-73
2021/11/18 04:04:08;;;;;;;2.85;1.75;;;;;;;5.41;100.00;102151.00;6278497;28;20051;-73
2021/11/18 04:07:11;;;;;;;8.70;2.95;;;;;;;5.36;100.00;102156.28;6298051;28;20407;-73
2021/11/18 04:10:16;;;;;;;6.18;2.20;;;;;;;5.38;100.00;102166.69;6297558;28;20055;-73
2021/11/18 04:13:18;;;;;;;2.10;1.58;;;;;;;5.40;100.00;102157.94;6298000;28;20055;-73
2021/11/18 04:16:19;;;;;;;5.43;2.10;;;;;;;5.44;100.00;102161.41;6297913;28;20415;-73
2021/11/18 04:19:21;;;;;;;6.00;2.15;;;;;;;5.42;100.00;102168.38;6297729;28;20044;-73
2021/11/18 04:22:24;;;;;;;4.32;1.65;;;;;;;5.42;100.00;102165.78;6297571;28;20049;-72
2021/11/18 04:25:29;;;;;;;12.30;2.58;;;;;;;5.44;100.00;102164.00;6297493;28;20052;-73
2021/11/18 04:28:31;;;;;;;7.38;2.20;;;;;;;5.41;100.00;102162.31;6297580;28;20495;-73
2021/11/18 04:31:32;;;;;;;7.75;2.50;;;;;;;5.37;100.00;102165.81;6275755;28;20045;-73
2021/11/18 04:34:35;;;;;;;6.13;2.63;;;;;;;5.35;100.00;102168.41;6272558;28;20454;-73
2021/11/18 04:37:37;;;;;;;4.63;2.28;;;;;;;5.34;100.00;102179.72;6272242;28;20045;-72
2021/11/18 04:40:39;;;;;;;4.38;2.20;;;;;;;5.34;100.00;102181.47;6272050;28;20044;-73
2021/11/18 04:43:42;;;;;;;4.57;2.80;;;;;;;5.36;100.00;102174.53;6271742;28;20049;-73
2021/11/18 04:46:43;;;;;;;6.78;2.65;;;;;;;5.29;100.00;102172.84;6272416;28;20419;-73
2021/11/18 04:49:46;;;;;;;7.47;3.33;;;;;;;5.30;100.00;102177.16;6272037;28;20052;-73
2021/11/18 04:52:49;;;;;;;7.43;2.42;;;;;;;5.29;100.00;102160.66;6272234;28;20045;-73
2021/11/18 04:55:50;;;;;;;4.50;2.38;;;;;;;5.25;100.00;102153.75;6273319;28;20048;-73
2021/11/18 04:58:52;;;;;;;4.65;2.72;;;;;;;5.30;100.00;102154.56;6271713;28;20048;-73
2021/11/18 05:01:54;;;;;;;5.60;2.30;;;;;;;5.33;100.00;102166.72;6271967;28;20049;-73
2021/11/18 05:04:55;;;;;;;4.45;2.42;;;;;;;5.35;100.00;102175.38;6271748;28;20439;-73
2021/11/18 05:07:57;;;;;;;5.75;3.10;;;;;;;5.34;100.00;102173.66;6271923;28;20056;-73
2021/11/18 05:10:59;;;;;;;7.45;3.05;;;;;;;5.32;100.00;102170.22;6271502;28;20056;-73
2021/11/18 05:14:02;;;;;;;10.38;3.15;;;;;;;5.30;100.00;102174.56;6271645;28;20451;-73
2021/11/18 05:17:03;;;;;;;6.75;2.95;;;;;;;5.31;100.00;102181.47;6271703;28;20052;-73
2021/11/18 05:20:07;;;;;;;9.32;2.60;;;;;;;5.28;100.00;102179.78;6277501;28;20048;-72
2021/11/18 05:23:10;;;;;;;6.25;2.60;;;;;;;5.29;100.00;102189.31;6293705;28;20048;-73
2021/11/18 05:26:14;;;;;;;5.63;2.60;;;;;;;5.32;100.00;102194.53;6279660;28;20052;-73
2021/11/18 05:29:16;;;;;;;3.80;2.38;;;;;;;5.35;100.00;102199.69;6280144;28;20448;-73
2021/11/18 05:32:17;;;;;;;9.88;3.15;;;;;;;5.33;100.00;102201.47;6296178;28;20053;-73
2021/11/18 05:35:19;;;;;;;7.85;2.45;;;;;;;5.35;100.00;102199.69;6295500;28;20044;-72
2021/11/18 05:38:23;;;;;;;8.63;3.75;;;;;;;5.38;100.00;102200.56;6294269;28;20048;-73
2021/11/18 05:41:24;;;;;;;11.80;3.08;;;;;;;5.42;100.00;102200.53;6295807;28;20051;-71
2021/11/18 05:44:26;;;;;;;10.77;3.72;;;;;;;5.43;100.00;102198.78;6296265;28;20044;-73
2021/11/18 05:47:28;;;;;;;13.13;3.03;;;;;;;5.41;100.00;102200.53;6280591;28;20056;-73
2021/11/18 05:50:30;;;;;;;6.85;2.90;;;;;;;5.42;100.00;102199.66;6270747;28;20048;-73
2021/11/18 05:53:37;;;;;;;5.97;2.88;;;;;;;5.46;100.00;102186.59;6271823;28;20076;-73
2021/11/18 05:56:39;;;;;;;8.77;3.10;;;;;;;5.44;100.00;102180.50;6283876;28;20510;-72
2021/11/18 05:59:40;;;;;;;9.57;3.78;;;;;;;5.45;100.00;102179.66;6299714;28;20174;-73
2021/11/18 06:02:42;;;;;;;9.82;3.75;;;;;;;5.49;100.00;102188.28;6300521;28;20057;-71
2021/11/18 06:05:43;;;;;;;9.05;3.67;;;;;;;5.50;100.00;102200.47;6300997;28;20487;-73
2021/11/18 06:08:46;;;;;;;8.32;3.05;;;;;;;5.54;100.00;102194.31;6300727;28;20496;-73
2021/11/18 06:11:47;;;;;;;6.85;3.00;;;;;;;5.54;100.00;102197.81;6299522;28;20056;-73
2021/11/18 06:14:49;;;;;;;11.15;3.45;;;;;;;5.59;100.00;102205.59;6300826;28;20531;-70
2021/11/18 06:17:50;;;;;;;8.93;3.45;;;;;;;5.63;100.00;102202.06;6300495;28;20071;-73
2021/11/18 06:20:51;;;;;;;6.75;3.03;;;;;;;5.68;100.00;102202.91;6300428;28;20055;-74
2021/11/18 06:23:54;;;;;;;13.38;2.97;;;;;;;5.70;100.00;102214.16;6299084;28;20071;-73
2021/11/18 06:26:57;;;;;;;9.57;2.20;;;;;;;5.72;100.00;102206.31;6298275;28;20057;-71
2021/11/18 06:29:59;;;;;;;5.13;2.63;;;;;;;5.74;100.00;102210.66;6298033;28;20048;-71
2021/11/18 06:33:00;;;;;;;9.07;3.42;;;;;;;5.76;100.00;102216.72;6297731;28;20045;-69
2021/11/18 06:36:02;;;;;;;5.68;3.08;;;;;;;5.78;100.00;102207.16;6297900;28;20045;-72
2021/11/18 06:39:05;;;;;;;5.03;2.90;;;;;;;5.83;100.00;102215.78;6274818;28;20055;-71
2021/11/18 06:42:08;;;;;;;8.20;3.38;;;;;;;5.85;100.00;102211.41;6275091;28;20056;-73
2021/11/18 06:45:13;;;;;;;9.05;2.72;;;;;;;5.86;100.00;102204.47;6275015;28;20507;-74
2021/11/18 06:48:17;;;;;;;12.60;3.58;;;;;;;5.86;100.00;102212.28;6283956;28;20114;-73
2021/11/18 06:51:22;;;;;;;7.05;3.55;;;;;;;5.85;100.00;102223.59;6289214;28;20131;-73
2021/11/18 06:54:24;;;;;;;9.43;5.22;;;;;;;5.95;100.00;102229.59;6291769;28;20507;-73
2021/11/18 06:57:26;;;;;;;8.68;3.53;;;;;;;6.03;100.00;102219.94;6299578;28;20487;-73
2021/11/18 07:00:27;;;;;;;6.28;3.30;;;;;;;6.03;100.00;102228.63;6298053;28;20059;-73
2021/11/18 07:03:29;;;;;;;9.57;3.22;;;;;;;6.03;100.00;102233.88;6284541;28;20496;-74
2021/11/18 07:06:32;;;;;;;8.50;3.53;;;;;;;6.05;100.00;102236.47;6274124;28;20516;-73
2021/11/18 07:09:37;;;;;;;5.03;3.35;;;;;;;6.07;100.00;102240.78;6274783;28;20048;-74
2021/11/18 07:12:39;;;;;;;7.13;3.60;;;;;;;6.06;100.00;102240.81;6274431;28;20084;-74
2021/11/18 07:15:40;;;;;;;9.00;3.88;;;;;;;6.11;100.00;102241.63;6274247;28;20045;-74
2021/11/18 07:18:42;;;;;;;11.15;3.70;;;;;;;6.13;100.00;102246.81;6274264;28;20067;-74
2021/11/18 07:21:43;;;;;;;9.65;4.15;;;;;;;6.12;100.00;102239.88;6274018;28;20056;-73
2021/11/18 07:24:46;;;;;;;8.48;3.53;;;;;;;6.13;100.00;102246.81;6274379;28;20057;-70
2021/11/18 07:27:49;;;;;;;6.28;3.65;;;;;;;6.14;100.00;102257.25;6275096;28;20381;-75
2021/11/18 07:30:52;;;;;;;9.38;3.45;;;;;;;6.15;100.00;102264.19;6274102;28;20048;-74
2021/11/18 07:33:54;;;;;;;7.40;3.05;;;;;;;6.13;100.00;102267.69;6273815;28;20048;-72
2021/11/18 07:36:55;;;;;;;8.90;2.85;;;;;;;6.10;100.00;102271.22;6274219;28;20053;-72
2021/11/18 07:39:58;;;;;;;4.25;2.78;;;;;;;6.10;100.00;102272.06;6295530;22;20049;-70
2021/11/18 07:42:59;;;;;;;10.55;3.05;;;;;;;6.15;100.00;102272.03;6276253;28;20618;-71
2021/11/18 07:46:03;;;;;;;9.05;3.42;;;;;;;6.14;100.00;102278.13;6298797;28;20078;-70
2021/11/18 07:49:05;;;;;;;12.07;2.70;;;;;;;6.15;100.00;102279.00;6280829;28;20488;-70
2021/11/18 07:52:06;;;;;;;12.10;3.70;;;;;;;6.12;100.00;102285.09;6273695;28;20053;-71
2021/11/18 07:55:11;;;;;;;7.82;2.97;;;;;;;6.08;100.00;102281.66;6291877;28;20048;-71
2021/11/18 07:58:13;;;;;;;10.88;3.60;;;;;;;6.12;100.00;102286.84;6279147;28;20045;-70
2021/11/18 08:01:15;;;;;;;6.72;3.08;;;;;;;6.13;100.00;102289.44;6272680;28;20048;-70
2021/11/18 08:04:16;;;;;;;7.40;3.95;;;;;;;6.20;100.00;102279.81;6273592;28;20056;-70
2021/11/18 08:07:18;;;;;;;9.10;3.75;;;;;;;6.22;100.00;102276.31;6273161;28;20057;-70
2021/11/18 08:10:20;;;;;;;6.57;2.92;;;;;;;6.25;100.00;102275.41;6273038;28;20052;-70
2021/11/18 08:13:22;;;;;;;9.02;3.40;;;;;;;6.33;100.00;102286.63;6273064;28;20048;-71
2021/11/18 08:16:23;;;;;;;7.47;4.25;;;;;;;6.39;100.00;102276.09;6272199;28;20439;-70
2021/11/18 08:19:25;;;;;;;10.98;4.18;;;;;;;6.43;100.00;102271.72;6281989;28;20510;-71
2021/11/18 08:22:27;;;;;;;7.45;4.13;;;;;;;6.45;100.00;102275.16;6297714;28;20086;-70
2021/11/18 08:25:32;;;;;;;8.23;4.20;;;;;;;6.49;100.00;102271.63;6297643;28;20056;-71
2021/11/18 08:28:33;;;;;;;15.15;3.65;;;;;;;6.50;100.00;102269.03;6297722;28;20067;-71
2021/11/18 08:31:35;;;;;;;14.43;4.43;;;;;;;6.57;100.00;102272.41;6297209;28;20546;-71
2021/11/18 08:34:38;;;;;;;6.60;3.80;;;;;;;6.56;100.00;102255.03;6297328;28;20044;-70
2021/11/18 08:37:39;;;;;;;17.45;3.90;;;;;;;6.63;100.00;102259.28;6297467;28;20055;-71
2021/11/18 08:40:45;;;;;;;15.50;4.40;;;;;;;6.65;100.00;102254.91;6296732;28;20044;-70
2021/11/18 08:43:48;;;;;;;10.00;4.15;;;;;;;6.70;100.00;102262.69;6296616;28;20052;-70
2021/11/18 08:46:50;;;;;;;9.38;4.78;;;;;;;6.78;100.00;102268.69;6295717;28;20051;-70
2021/11/18 08:49:52;;;;;;;10.82;4.20;;;;;;;6.82;100.00;102268.63;6296774;28;20051;-71
2021/11/18 08:52:54;;;;;;;13.80;4.30;;;;;;;6.83;100.00;102272.09;6296928;28;20051;-70
2021/11/18 08:55:57;;;;;;;16.45;5.13;;;;;;;6.89;100.00;102278.97;6296772;28;20127;-71
2021/11/18 08:58:59;;;;;;;10.85;4.72;;;;;;;6.92;100.00;102276.34;6296812;28;20044;-70
2021/11/18 09:02:03;;;;;;;8.80;4.40;;;;;;;6.99;100.00;102284.06;6296168;28;20098;-70
2021/11/18 09:05:05;;;;;;;7.68;4.20;;;;;;;7.07;100.00;102286.56;6296772;28;20048;-70
2021/11/18 09:08:07;;;;;;;16.08;4.75;;;;;;;7.11;100.00;102283.91;6296849;28;20052;-70
2021/11/18 09:11:13;;;;;;;13.85;5.47;;;;;;;7.19;100.00;102269.84;6294428;28;20048;-70
2021/11/18 09:14:16;;;;;;;10.65;4.65;;;;;;;7.22;100.00;102280.25;6296789;28;20048;-70
2021/11/18 09:17:18;;;;;;;15.10;6.13;;;;;;;7.29;100.00;102294.97;6296449;28;21026;-70
2021/11/18 09:20:22;;;;;;;13.68;3.78;;;;;;;7.31;100.00;102299.31;6289877;28;20503;-72
2021/11/18 09:23:27;;;;;;;11.70;4.28;;;;;;;7.44;100.00;102299.09;6296423;28;20051;-70
2021/11/18 09:26:32;;;;;;;8.35;4.63;;;;;;;7.53;100.00;102312.91;6296725;28;20052;-70
2021/11/18 09:29:34;;;;;;;12.30;5.13;;;;;;;7.54;100.00;102330.34;6296061;28;20495;-70
2021/11/18 09:32:36;;;;;;;16.27;5.28;;;;;;;7.67;100.00;102322.28;6296357;28;20052;-69
2021/11/18 09:35:41;;;;;;;7.80;4.10;;;;;;;7.67;100.00;102317.91;6294796;28;20052;-69
2021/11/18 09:38:45;;;;;;;9.07;4.40;;;;;;;7.71;100.00;102309.13;6296040;28;20450;-69
2021/11/18 09:42:03;;;;;;;7.45;4.28;;;;;;;7.74;100.00;102305.63;6296213;28;20056;-69
2021/11/18 09:45:14;;;;;;;14.57;4.15;;;;;;;7.78;100.00;102309.91;6296365;28;20051;-69
2021/11/18 09:48:40;;;;;;;11.23;5.40;;;;;;;7.84;100.00;102309.78;6296139;28;20045;-70
2021/11/18 09:52:03;;;;;;;7.72;4.60;;;;;;;7.89;100.00;102297.50;6296134;28;20052;-69
2021/11/18 09:55:09;;;;;;;12.90;4.95;;;;;;;7.94;100.00;102308.75;6295979;28;20048;-70
2021/11/18 09:58:26;;;;;;;10.57;4.10;;;;;;;8.08;100.00;102291.06;6296174;28;20049;-70
2021/11/18 10:01:48;;;;;;;11.15;4.47;;;;;;;8.16;100.00;102290.91;6294480;28;20055;-70
2021/11/18 10:04:53;;;;;;;15.40;4.80;;;;;;;8.16;100.00;102283.03;6295923;28;20057;-70
2021/11/18 10:07:58;;;;;;;11.68;4.00;;;;;;;8.22;100.00;102279.44;6296256;28;20056;-70
2021/11/18 10:11:20;;;;;;;15.73;4.65;;;;;;;8.25;100.00;102284.63;6295620;28;20475;-70
2021/11/18 10:15:02;;;;;;;13.40;4.57;;;;;;;8.26;100.00;102287.22;6296110;28;20052;-71
2021/11/18 10:18:12;;;;;;;15.73;4.78;;;;;;;8.29;100.00;102286.31;6194526;28;20058;-70
2021/11/18 10:21:18;;;;;;;8.07;5.00;;;;;;;8.33;100.00;102285.34;6195226;28;20512;-70
2021/11/18 10:24:21;;;;;;;13.85;4.05;;;;;;;8.32;100.00;102284.50;6296147;28;20056;-70
2021/11/18 10:27:26;;;;;;;16.65;5.07;;;;;;;8.42;100.00;102284.34;6294835;28;20040;-70
2021/11/18 10:30:40;;;;;;;6.78;3.63;;;;;;;8.49;100.00;102292.03;6295748;28;20041;-70
2021/11/18 10:33:45;;;;;;;8.73;3.95;;;;;;;8.60;100.00;102286.59;6295592;28;20052;-70
2021/11/18 10:37:00;;;;;;;15.60;5.18;;;;;;;8.57;100.00;102289.28;6295835;28;20045;-70
2021/11/18 10:40:08;;;;;;;12.27;5.07;;;;;;;8.62;100.00;102282.19;6296465;28;20040;-70
2021/11/18 10:43:15;;;;;;;8.40;4.18;;;;;;;8.66;100.00;102269.88;6300452;28;20056;-70
2021/11/18 10:46:27;;;;;;;10.52;4.85;;;;;;;8.70;100.00;102267.16;6300214;28;20055;-70
2021/11/18 10:49:40;;;;;;;13.23;4.55;;;;;;;8.80;100.00;102260.81;6299944;28;20067;-70
2021/11/18 10:52:46;;;;;;;9.48;4.03;;;;;;;9.01;100.00;102261.25;6298198;28;20526;-70
2021/11/18 10:55:50;;;;;;;10.38;4.30;;;;;;;9.13;100.00;102255.75;6300000;28;20423;-70
2021/11/18 10:59:03;;;;;;;11.20;4.88;;;;;;;9.17;100.00;102246.88;6299820;28;20049;-71
2021/11/18 11:02:26;;;;;;;12.40;4.45;;;;;;;9.28;100.00;102252.75;6299555;28;20049;-70
2021/11/18 11:05:38;;;;;;;11.45;4.30;;;;;;;9.29;100.00;102246.59;6299909;28;20084;-70
2021/11/18 11:08:42;;;;;;;9.68;4.20;;;;;;;9.17;100.00;102246.03;6299594;28;20646;-70
2021/11/18 11:11:57;;;;;;;21.42;4.90;;;;;;;9.18;100.00;102251.25;6299493;28;20058;-70
2021/11/18 11:15:13;;;;;;;12.40;4.20;;;;;;;9.19;100.00;102250.34;6299618;28;20450;-70
2021/11/18 11:18:31;;;;;;;14.57;4.15;;;;;;;9.17;100.00;102244.25;6298826;28;20403;-70
2021/11/18 11:21:48;;;;;;;10.48;3.72;;;;;;;9.26;100.00;102251.91;6280389;28;20052;-70
2021/11/18 11:25:15;;;;;;;12.23;3.75;;;;;;;9.36;100.00;102228.97;6274554;28;20485;-70
2021/11/18 11:28:30;;;;;;;6.10;2.80;;;;;;;9.52;100.00;102224.19;6274186;28;20045;-70
2021/11/18 11:31:46;;;;;;;10.95;3.55;;;;;;;9.56;100.00;102225.84;6274062;28;20049;-70
2021/11/18 11:34:58;;;;;;;15.57;3.53;;;;;;;9.50;100.00;102237.34;6274535;28;20496;-69
2021/11/18 11:38:16;;;;;;;6.80;2.97;;;;;;;9.51;100.00;102233.81;6274093;28;20044;-70
2021/11/18 11:41:48;;;;;;;5.50;2.47;;;;;;;9.53;100.00;102215.41;6273466;28;20056;-70
2021/11/18 11:45:01;;;;;;;10.45;2.63;;;;;;;9.55;100.00;102219.72;6288870;28;20434;-70
2021/11/18 11:48:34;;;;;;;10.88;3.10;;;;;;;9.61;100.00;102224.81;6298816;28;20406;-70
2021/11/18 11:52:02;;;;;;;5.07;2.50;;;;;;;9.54;100.00;102220.63;6282764;28;20143;-71
2021/11/18 11:55:19;;;;;;;5.38;1.83;;;;;;;9.59;100.00;102220.53;6298607;28;20511;-70
2021/11/18 11:58:26;;;;;;;5.30;2.08;;;;;;;9.62;100.00;102213.41;6298563;28;20049;-70
2021/11/18 12:01:35;;;;;;;6.75;2.25;;;;;;;9.66;100.00;102203.69;6297918;28;20487;-70
2021/11/18 12:04:39;;;;;;;10.05;2.15;;;;;;;9.68;100.00;102207.16;6298220;28;20081;-70
2021/11/18 12:07:48;;;;;;;8.23;2.05;;;;;;;9.75;100.00;102210.47;6298512;28;20056;-70
2021/11/18 12:10:54;;;;;;;8.90;2.42;;;;;;;9.84;100.00;102223.34;6296142;28;20048;-70
2021/11/18 12:14:03;;;;;;;13.20;3.15;;;;;;;9.82;100.00;102198.91;6298064;28;20510;-70
2021/11/18 12:17:08;;;;;;;6.43;1.88;;;;;;;9.85;100.00;102202.28;6297831;28;20499;-70
2021/11/18 12:20:14;;;;;;;6.18;2.25;;;;;;;9.90;100.00;102186.41;6297618;28;20056;-70
2021/11/18 12:23:18;;;;;;;4.70;1.80;;;;;;;9.89;100.00;102179.44;6297817;28;20059;-70
2021/11/18 12:26:20;;;;;;;4.25;1.50;;;;;;;9.91;100.00;102175.88;6297802;28;20055;-70
2021/11/18 12:29:28;;;;;;;3.55;1.58;;;;;;;9.90;100.00;102182.06;6297597;28;20047;-71
2021/11/18 12:32:34;;;;;;;7.75;2.30;;;;;;;9.84;100.00;102165.59;6297619;28;20044;-69
2021/11/18 12:35:48;;;;;;;12.45;2.13;;;;;;;9.79;100.00;102165.72;6295782;28;20044;-69
2021/11/18 12:39:13;;;;;;;4.65;1.98;;;;;;;9.81;100.00;102163.94;6297465;28;20053;-69
2021/11/18 12:42:43;;;;;;;5.43;1.33;;;;;;;9.91;99.53;102156.66;6296736;28;20044;-71
2021/11/18 12:45:56;;;;;;;5.50;1.13;;;;;;;9.89;98.82;102151.41;6297306;28;20044;-70
2021/11/18 12:49:19;;;;;;;10.65;1.80;;;;;;;9.85;100.00;102152.41;6297061;28;20052;-70
2021/11/18 12:52:24;;;;;;;2.60;1.40;;;;;;;9.87;100.00;102126.13;6290665;28;20055;-70
2021/11/18 12:55:45;;;;;;;3.53;1.85;;;;;;;9.94;100.00;102145.19;6297279;28;20058;-70
2021/11/18 12:58:54;;;;;;;9.25;1.70;;;;;;;9.85;99.05;102141.91;6296924;28;20550;-70
2021/11/18 13:02:00;;;;;;;7.13;1.60;;;;;;;9.85;100.00;102133.16;6294956;28;20045;-70
2021/11/18 13:05:04;;;;;;;7.78;1.90;;;;;;;9.87;100.00;102132.25;6296585;28;20411;-70
2021/11/18 13:08:08;;;;;;;6.75;2.75;;;;;;;9.90;99.68;102126.91;6296830;28;20052;-70
2021/11/18 13:11:45;;;;;;;10.85;1.80;;;;;;;9.83;100.00;102133.22;6296331;28;20091;-70
2021/11/18 13:15:02;;;;;;;7.35;1.52;;;;;;;9.81;100.00;102115.78;6296767;28;20446;-70
2021/11/18 13:18:24;;;;;;;10.57;2.80;;;;;;;9.77;100.00;102117.66;6296637;28;20059;-70
2021/11/18 13:21:42;;;;;;;9.60;3.17;;;;;;;9.66;100.00;102117.94;6296450;28;20083;-70
2021/11/18 13:24:53;;;;;;;9.98;2.13;;;;;;;9.50;100.00;102111.41;6296774;28;20059;-70
2021/11/18 13:28:09;;;;;;;4.88;2.65;;;;;;;9.40;100.00;102102.91;6295940;28;20060;-70
2021/11/18 13:31:11;;;;;;;3.35;1.60;;;;;;;9.30;100.00;102095.31;6296501;28;20484;-70
2021/11/18 13:34:19;;;;;;;3.47;1.77;;;;;;;9.27;100.00;102098.91;6296633;28;20052;-70
2021/11/18 13:37:23;;;;;;;5.65;2.30;;;;;;;9.23;100.00;102099.88;6296671;28;20056;-70
2021/11/18 13:40:29;;;;;;;9.00;2.10;;;;;;;9.27;100.00;102092.78;6295796;28;20055;-70
2021/11/18 13:43:50;;;;;;;8.52;2.20;;;;;;;9.34;100.00;102089.09;6296517;28;20056;-70
2021/11/18 13:46:58;;;;;;;6.15;2.88;;;;;;;9.33;100.00;102087.38;6296189;28;20061;-70
2021/11/18 13:50:02;;;;;;;7.53;2.22;;;;;;;9.31;100.00;102097.91;6296081;28;20048;-70
2021/11/18 13:53:07;;;;;;;9.10;2.00;;;;;;;9.32;100.00;102091.75;6294452;28;20049;-72
2021/11/18 13:56:22;;;;;;;7.63;2.58;;;;;;;9.38;100.00;102090.72;6296403;28;20057;-70
2021/11/18 13:59:28;;;;;;;8.07;2.40;;;;;;;9.38;100.00;102096.81;6295944;28;20052;-70
2021/11/18 14:02:35;;;;;;;11.35;2.65;;;;;;;9.37;100.00;102089.00;6295691;28;20055;-72
2021/11/18 14:05:42;;;;;;;9.27;2.22;;;;;;;9.40;100.00;102102.03;6296201;28;20475;-72
2021/11/18 14:08:54;;;;;;;4.95;1.92;;;;;;;9.43;100.00;102083.59;6295874;28;20052;-72
2021/11/18 14:12:00;;;;;;;11.05;2.05;;;;;;;9.39;100.00;102077.56;6296043;28;20045;-71
2021/11/18 14:15:27;;;;;;;6.72;2.42;;;;;;;9.39;100.00;102092.44;6297193;28;20511;-71
2021/11/18 14:18:31;;;;;;;5.85;2.35;;;;;;;9.37;100.00;102089.88;6292902;28;20057;-69
2021/11/18 14:21:42;;;;;;;13.65;1.77;;;;;;;9.46;100.00;102091.38;6281983;28;20053;-70